Terminal Aerodrome Forecast
Issued by NWS

Home | Current Version | Previous Version | Graphics & Text | Print | Product List | Glossary On
Versions: 1 2 3 4 5 6 7 8 9 10 11 12 13
562
FTUS43 KICT 120537
TAFSLN
TAF
KSLN 120537Z 1206/1306 24005KT P6SM SCT250
     FM120800 31010KT P6SM SCT250
     FM121000 33012KT P6SM BKN015
     FM121700 03008KT P6SM SCT025
     FM130000 06005KT P6SM SCT015=

USA.gov is the U.S. government's official web portal to all federal, state and local government web resources and services.